Time;durP1;ratioP1;P1;durP2;ratioP2;P2;SDS_P1;SDS_P2;PMS_P1;PMS_P2;Temp;Humidity;BMP_temperature;BMP_pressure;BME280_temperature;BME280_humidity;BME280_pressure;Samples;Min_cycle;Max_cycle;Signal;HPM_P1;HPM_P2
2023/05/04 00:02:01;;;;;;;2.47;1.83;;;10.50;70.70;;;;;;6160128;23;20170;-70
2023/05/04 00:04:27;;;;;;;4.57;2.10;;;10.50;71.30;;;;;;6160044;23;20135;-69
2023/05/04 00:06:52;;;;;;;4.07;2.27;;;10.50;69.90;;;;;;6160298;23;20131;-71
2023/05/04 00:09:18;;;;;;;2.77;2.17;;;10.50;69.20;;;;;;6160204;23;20177;-69
2023/05/04 00:11:44;;;;;;;5.53;2.00;;;10.50;67.90;;;;;;6158007;23;20585;-70
2023/05/04 00:14:09;;;;;;;4.10;2.40;;;10.50;66.60;;;;;;6158632;23;20139;-70
2023/05/04 00:16:35;;;;;;;3.50;1.90;;;10.50;66.00;;;;;;6158984;23;20132;-71
2023/05/04 00:19:00;;;;;;;3.50;2.00;;;10.60;65.20;;;;;;6157749;23;20187;-71
2023/05/04 00:21:26;;;;;;;4.83;2.10;;;10.60;64.50;;;;;;6158857;23;20143;-70
2023/05/04 00:23:52;;;;;;;2.00;1.53;;;10.60;64.10;;;;;;6158758;23;20135;-70
2023/05/04 00:26:18;;;;;;;3.90;1.70;;;10.60;63.50;;;;;;6160217;23;20760;-70
2023/05/04 00:28:43;;;;;;;3.53;1.67;;;10.60;63.10;;;;;;6160621;23;20378;-70
2023/05/04 00:31:09;;;;;;;3.93;2.13;;;10.50;62.90;;;;;;6163773;23;20166;-71
2023/05/04 00:33:34;;;;;;;2.20;1.77;;;10.50;62.90;;;;;;6158979;23;20135;-71
2023/05/04 00:36:02;;;;;;;1.30;1.20;;;10.50;63.00;;;;;;6157227;23;20175;-71
2023/05/04 00:38:28;;;;;;;3.17;2.27;;;10.40;63.30;;;;;;6156590;23;20151;-70
2023/05/04 00:40:54;;;;;;;4.60;2.03;;;10.40;64.10;;;;;;6158150;23;20449;-69
2023/05/04 00:43:20;;;;;;;4.60;2.20;;;10.40;64.00;;;;;;6156946;23;20211;-70
2023/05/04 00:45:46;;;;;;;3.17;1.63;;;10.30;63.90;;;;;;6158207;23;20584;-69
2023/05/04 00:48:12;;;;;;;6.47;2.37;;;10.30;64.20;;;;;;6156789;23;20214;-70
2023/05/04 00:50:39;;;;;;;9.43;2.40;;;10.30;64.50;;;;;;6158156;23;20398;-70
2023/05/04 00:53:09;;;;;;;2.90;1.90;;;10.20;64.50;;;;;;6157645;23;20417;-69
2023/05/04 00:55:41;;;;;;;3.20;2.00;;;10.20;64.70;;;;;;6157098;23;20390;-69
2023/05/04 00:58:08;;;;;;;2.70;1.50;;;10.20;65.30;;;;;;6156123;23;20649;-69
2023/05/04 01:00:34;;;;;;;2.40;1.60;;;10.10;66.00;;;;;;6157861;23;20406;-70
2023/05/04 01:03:00;;;;;;;2.70;1.73;;;10.10;66.40;;;;;;6158447;23;20360;-70
2023/05/04 01:05:29;;;;;;;6.70;1.90;;;10.10;66.80;;;;;;6157170;23;20726;-70
2023/05/04 01:08:06;;;;;;;3.53;1.67;;;10.10;67.20;;;;;;6159497;23;20724;-70
2023/05/04 01:10:35;;;;;;;3.73;1.73;;;10.00;67.50;;;;;;6158749;23;20399;-71
2023/05/04 01:13:07;;;;;;;7.13;2.40;;;10.00;68.00;;;;;;6160189;23;20850;-70
2023/05/04 01:15:34;;;;;;;3.70;2.50;;;10.00;68.10;;;;;;6159701;23;20359;-71
2023/05/04 01:18:00;;;;;;;4.37;1.90;;;10.10;68.00;;;;;;6159555;23;20374;-70
2023/05/04 01:20:26;;;;;;;3.70;2.10;;;10.10;67.90;;;;;;6160798;23;20474;-70
2023/05/04 01:22:52;;;;;;;2.80;2.30;;;10.10;67.70;;;;;;6159227;23;20445;-69
2023/05/04 01:25:19;;;;;;;4.17;1.73;;;10.10;67.30;;;;;;6158512;23;20443;-70
2023/05/04 01:28:07;;;;;;;5.30;2.50;;;10.10;67.80;;;;;;6158693;23;20359;-70
2023/05/04 01:30:43;;;;;;;3.70;1.83;;;10.10;68.30;;;;;;6161581;23;20167;-69
2023/05/04 01:33:09;;;;;;;4.50;2.03;;;10.10;68.00;;;;;;6157955;23;20776;-69
2023/05/04 01:35:36;;;;;;;3.87;2.00;;;10.00;68.00;;;;;;6156431;23;20410;-68
2023/05/04 01:38:02;;;;;;;3.77;1.70;;;10.10;68.50;;;;;;6156539;23;20429;-70
2023/05/04 01:40:28;;;;;;;5.63;2.30;;;10.00;68.40;;;;;;6157543;23;20175;-69
2023/05/04 01:42:55;;;;;;;6.27;2.00;;;10.00;68.10;;;;;;6158071;23;20351;-72
2023/05/04 01:45:21;;;;;;;4.50;1.87;;;10.00;68.20;;;;;;6158352;23;20355;-70
2023/05/04 01:47:48;;;;;;;3.70;2.00;;;10.00;68.40;;;;;;6157298;23;20143;-69
2023/05/04 01:50:14;;;;;;;5.10;2.23;;;10.00;68.40;;;;;;6157542;23;20867;-71
2023/05/04 01:52:39;;;;;;;3.30;1.80;;;10.00;68.00;;;;;;6158739;23;20370;-71
2023/05/04 01:55:05;;;;;;;3.13;1.80;;;10.00;67.60;;;;;;6158954;23;20417;-70
2023/05/04 01:57:31;;;;;;;9.27;3.50;;;9.90;69.10;;;;;;6157273;23;20139;-68
2023/05/04 01:59:57;;;;;;;2.63;2.00;;;9.90;69.40;;;;;;6155753;23;20483;-69
2023/05/04 02:02:23;;;;;;;2.93;1.93;;;9.90;69.80;;;;;;6156904;23;20147;-68
2023/05/04 02:04:49;;;;;;;7.50;2.00;;;9.90;69.90;;;;;;6156421;23;20787;-70
2023/05/04 02:07:15;;;;;;;2.07;1.57;;;9.90;70.20;;;;;;6156844;23;20379;-69
2023/05/04 02:09:41;;;;;;;3.60;2.10;;;9.80;70.50;;;;;;6155529;23;20254;-70
2023/05/04 02:12:07;;;;;;;3.80;2.10;;;9.70;70.90;;;;;;6155815;23;20386;-70
2023/05/04 02:14:33;;;;;;;2.23;1.40;;;9.70;71.40;;;;;;6157452;23;20182;-70
2023/05/04 02:16:58;;;;;;;5.43;2.00;;;9.60;71.70;;;;;;6157391;23;20208;-68
2023/05/04 02:19:24;;;;;;;3.93;2.00;;;9.60;72.20;;;;;;6154965;23;20265;-69
2023/05/04 02:21:51;;;;;;;2.77;1.60;;;9.60;72.70;;;;;;6157609;23;20166;-70
2023/05/04 02:24:16;;;;;;;5.40;2.07;;;9.50;72.90;;;;;;6158090;23;20378;-71
2023/05/04 02:26:42;;;;;;;3.33;2.07;;;9.50;73.60;;;;;;6157758;23;20362;-69
2023/05/04 02:29:07;;;;;;;5.90;2.80;;;9.50;73.90;;;;;;6154950;23;20561;-70
2023/05/04 02:31:33;;;;;;;2.87;2.00;;;9.50;74.70;;;;;;6157335;23;20270;-71
2023/05/04 02:34:00;;;;;;;2.90;1.80;;;9.40;75.00;;;;;;6155610;23;20147;-69
2023/05/04 02:36:26;;;;;;;4.47;2.50;;;9.40;75.10;;;;;;6155906;23;20383;-71
2023/05/04 02:38:51;;;;;;;5.37;2.20;;;9.40;76.70;;;;;;6156443;23;20402;-71
2023/05/04 02:41:17;;;;;;;4.83;2.50;;;9.30;76.30;;;;;;6158064;23;20536;-69
2023/05/04 02:43:43;;;;;;;2.73;1.90;;;9.30;77.30;;;;;;6156562;23;20498;-69
2023/05/04 02:46:09;;;;;;;3.27;1.93;;;9.30;77.70;;;;;;6157793;23;20354;-69
2023/05/04 02:48:34;;;;;;;3.50;1.90;;;9.20;78.30;;;;;;6157376;23;20238;-70
2023/05/04 02:51:00;;;;;;;4.70;2.47;;;9.20;78.80;;;;;;6157500;23;20175;-71
2023/05/04 02:53:25;;;;;;;4.40;2.30;;;9.20;79.30;;;;;;6158401;23;20162;-71
2023/05/04 02:55:51;;;;;;;4.67;2.10;;;9.10;79.90;;;;;;6163487;23;20186;-69
2023/05/04 02:58:16;;;;;;;4.37;2.60;;;9.10;80.70;;;;;;6162671;23;20459;-71
2023/05/04 03:00:42;;;;;;;8.03;3.80;;;9.10;80.80;;;;;;6156569;23;20183;-70
2023/05/04 03:03:07;;;;;;;4.10;2.60;;;9.10;81.20;;;;;;6159422;23;20143;-71
2023/05/04 03:05:33;;;;;;;3.73;2.10;;;9.10;81.60;;;;;;6157703;23;20146;-72
2023/05/04 03:07:59;;;;;;;4.63;2.40;;;9.10;81.90;;;;;;6157877;23;20143;-70
2023/05/04 03:10:25;;;;;;;6.83;3.17;;;9.10;81.30;;;;;;6158578;23;20159;-71
2023/05/04 03:12:50;;;;;;;4.07;2.13;;;9.20;80.80;;;;;;6159225;23;20370;-68
2023/05/04 03:15:16;;;;;;;3.53;2.70;;;9.20;81.00;;;;;;6162082;23;20155;-71
2023/05/04 03:17:42;;;;;;;4.83;2.53;;;9.10;81.80;;;;;;6160613;23;20147;-70
2023/05/04 03:20:08;;;;;;;4.00;2.20;;;9.10;82.10;;;;;;6157208;23;20199;-71
2023/05/04 03:22:34;;;;;;;3.97;2.23;;;9.10;81.90;;;;;;6158067;23;20379;-71
2023/05/04 03:25:00;;;;;;;9.00;2.90;;;9.10;81.80;;;;;;6158177;23;20368;-69
2023/05/04 03:27:26;;;;;;;2.87;2.57;;;9.00;82.70;;;;;;6157861;23;20378;-70
2023/05/04 03:29:52;;;;;;;4.73;2.87;;;9.00;83.10;;;;;;6157229;23;20242;-70
2023/05/04 03:32:19;;;;;;;5.40;2.23;;;9.00;83.90;;;;;;6158950;23;20417;-70
2023/05/04 03:34:45;;;;;;;5.70;3.73;;;8.90;84.60;;;;;;6159103;23;20406;-72
2023/05/04 03:37:11;;;;;;;6.13;2.63;;;8.90;85.00;;;;;;6160127;23;20370;-70
2023/05/04 03:39:36;;;;;;;4.50;2.67;;;8.90;86.00;;;;;;6157342;23;20194;-67
2023/05/04 03:42:03;;;;;;;4.70;2.63;;;8.80;86.00;;;;;;6158954;23;20621;-69
2023/05/04 03:44:29;;;;;;;6.67;2.43;;;8.80;86.10;;;;;;6156983;23;20153;-69
2023/05/04 03:46:54;;;;;;;2.60;1.97;;;8.80;86.40;;;;;;6158567;23;20777;-72
2023/05/04 03:49:21;;;;;;;3.60;2.97;;;8.80;87.20;;;;;;6156655;23;20189;-74
2023/05/04 03:51:46;;;;;;;6.80;2.73;;;8.80;87.50;;;;;;6159561;23;20366;-68
2023/05/04 03:54:12;;;;;;;9.87;2.70;;;8.80;88.10;;;;;;6157995;23;20155;-71
2023/05/04 03:56:37;;;;;;;3.40;2.50;;;8.80;88.70;;;;;;6158623;23;20146;-70
2023/05/04 03:59:03;;;;;;;3.70;2.40;;;8.80;88.70;;;;;;6156120;23;20183;-70
2023/05/04 04:01:30;;;;;;;6.40;2.37;;;8.80;88.30;;;;;;6161037;23;20187;-70
2023/05/04 04:03:56;;;;;;;3.90;2.20;;;8.80;88.40;;;;;;6163331;23;20378;-70
2023/05/04 04:06:22;;;;;;;5.40;2.50;;;8.80;88.70;;;;;;6164631;23;20158;-72
2023/05/04 04:08:47;;;;;;;6.60;3.40;;;8.80;88.90;;;;;;6166218;23;20374;-70
2023/05/04 04:11:13;;;;;;;3.10;2.10;;;8.80;89.40;;;;;;6163895;23;20139;-70
2023/05/04 04:13:39;;;;;;;4.30;2.20;;;8.80;89.40;;;;;;6163916;23;20194;-72
2023/05/04 04:16:05;;;;;;;4.00;2.40;;;8.70;89.30;;;;;;6166782;23;20139;-70
2023/05/04 04:18:31;;;;;;;4.63;3.03;;;8.70;90.00;;;;;;6166046;23;20179;-69
2023/05/04 04:20:57;;;;;;;6.03;3.00;;;8.70;90.30;;;;;;6166111;23;20418;-68
2023/05/04 04:23:23;;;;;;;4.20;2.57;;;8.70;90.20;;;;;;6163531;23;20382;-71
2023/05/04 04:25:48;;;;;;;4.57;2.30;;;8.80;90.10;;;;;;6163548;23;20139;-70
2023/05/04 04:28:15;;;;;;;3.90;2.30;;;8.80;90.00;;;;;;6163397;23;20395;-70
2023/05/04 04:30:41;;;;;;;3.00;2.67;;;8.90;89.60;;;;;;6163925;23;20167;-68
2023/05/04 04:33:08;;;;;;;2.90;2.60;;;8.90;89.10;;;;;;6165765;23;20360;-75
2023/05/04 04:35:34;;;;;;;3.40;2.40;;;8.90;89.10;;;;;;6141236;23;20389;-72
2023/05/04 04:38:00;;;;;;;3.40;2.00;;;8.90;89.20;;;;;;6163215;23;20382;-70
2023/05/04 04:40:26;;;;;;;7.57;2.10;;;9.00;89.50;;;;;;6168476;23;20175;-70
2023/05/04 04:42:51;;;;;;;4.87;2.30;;;9.00;89.40;;;;;;6165320;23;20231;-69
2023/05/04 04:45:19;;;;;;;4.27;3.60;;;9.00;89.10;;;;;;6165110;23;20190;-70
2023/05/04 04:47:45;;;;;;;10.40;4.90;;;9.10;89.30;;;;;;6141301;23;20139;-70
2023/05/04 04:50:10;;;;;;;6.00;3.40;;;9.10;88.50;;;;;;6164037;23;20402;-71
2023/05/04 04:52:40;;;;;;;4.20;3.20;;;9.20;88.40;;;;;;6173249;23;20139;-70
2023/05/04 04:55:07;;;;;;;6.70;3.50;;;9.20;88.10;;;;;;6169882;23;20525;-70
2023/05/04 04:57:32;;;;;;;8.40;2.73;;;9.30;87.20;;;;;;6166217;23;20455;-71
2023/05/04 04:59:59;;;;;;;3.47;2.37;;;9.30;86.30;;;;;;6166098;23;20685;-71
2023/05/04 05:02:26;;;;;;;5.17;2.40;;;9.40;85.70;;;;;;6172626;23;20140;-70
2023/05/04 05:04:53;;;;;;;5.37;2.40;;;9.40;84.80;;;;;;6165531;23;20363;-71
2023/05/04 05:07:19;;;;;;;9.43;3.50;;;9.50;84.10;;;;;;6164540;23;20363;-71
2023/05/04 05:09:44;;;;;;;6.13;3.10;;;9.50;83.50;;;;;;6167180;23;20395;-72
2023/05/04 05:12:10;;;;;;;2.67;2.20;;;9.60;83.10;;;;;;6166842;23;20279;-72
2023/05/04 05:14:37;;;;;;;4.13;2.57;;;9.70;82.50;;;;;;6165657;23;20501;-72
2023/05/04 05:17:03;;;;;;;4.70;2.67;;;9.80;81.20;;;;;;6166862;23;20449;-69
2023/05/04 05:19:28;;;;;;;3.50;2.53;;;10.00;78.80;;;;;;6164427;23;20466;-70
2023/05/04 05:21:55;;;;;;;3.00;2.60;;;10.40;75.70;;;;;;6170761;23;20135;-71
2023/05/04 05:24:21;;;;;;;8.43;3.00;;;10.80;71.30;;;;;;6176082;23;20374;-72
2023/05/04 05:26:47;;;;;;;5.40;2.60;;;11.20;66.30;;;;;;6174214;23;20363;-70
2023/05/04 05:29:12;;;;;;;6.40;3.00;;;11.70;64.30;;;;;;6165505;23;20418;-72
2023/05/04 05:31:38;;;;;;;7.80;2.80;;;12.10;60.10;;;;;;6167589;23;20150;-74
2023/05/04 05:34:04;;;;;;;4.10;2.20;;;12.40;58.30;;;;;;6167047;23;20159;-72
2023/05/04 05:36:29;;;;;;;5.03;2.67;;;12.50;57.30;;;;;;6164339;23;20199;-73
2023/05/04 05:38:55;;;;;;;5.90;3.00;;;12.50;57.00;;;;;;6165147;23;20190;-72
2023/05/04 05:41:21;;;;;;;7.60;3.80;;;12.60;56.70;;;;;;6166504;23;20136;-73
2023/05/04 05:43:47;;;;;;;4.83;2.90;;;12.90;56.00;;;;;;6172263;23;20186;-74
2023/05/04 05:46:13;;;;;;;4.30;2.80;;;13.10;54.90;;;;;;6166061;23;20542;-73
2023/05/04 05:48:39;;;;;;;4.60;2.77;;;13.30;54.60;;;;;;6168069;23;20171;-72
2023/05/04 05:51:04;;;;;;;5.00;3.57;;;13.60;54.20;;;;;;6165727;23;20370;-73
2023/05/04 05:53:30;;;;;;;5.87;3.67;;;13.90;53.30;;;;;;6169165;23;20146;-73
2023/05/04 05:55:56;;;;;;;5.70;3.13;;;14.10;52.20;;;;;;6165543;23;20394;-74
2023/05/04 05:58:22;;;;;;;3.90;2.77;;;14.20;51.70;;;;;;6166148;23;20132;-74
2023/05/04 06:00:47;;;;;;;3.97;3.00;;;14.60;51.80;;;;;;6167820;23;20182;-72
2023/05/04 06:03:13;;;;;;;4.07;2.37;;;14.80;50.80;;;;;;6170940;23;20800;-74
2023/05/04 06:05:39;;;;;;;3.83;2.90;;;14.90;50.30;;;;;;6170922;23;20135;-75
2023/05/04 06:08:05;;;;;;;5.10;3.07;;;14.80;49.90;;;;;;6175446;23;20135;-75
2023/05/04 06:10:30;;;;;;;4.67;2.80;;;14.70;50.10;;;;;;6174298;23;20221;-74
2023/05/04 06:12:56;;;;;;;2.93;2.30;;;14.70;50.20;;;;;;6174545;23;20140;-73
2023/05/04 06:15:22;;;;;;;7.93;3.63;;;14.60;50.30;;;;;;6174692;23;20207;-74
2023/05/04 06:17:48;;;;;;;10.13;3.30;;;14.50;49.50;;;;;;6174103;23;20137;-73
2023/05/04 06:20:14;;;;;;;3.03;2.60;;;14.10;50.10;;;;;;6169359;23;20226;-74
2023/05/04 06:22:40;;;;;;;3.50;2.83;;;14.00;50.70;;;;;;6172018;23;20757;-72
2023/05/04 06:25:06;;;;;;;5.37;2.90;;;13.80;50.90;;;;;;6170691;23;20374;-74
2023/05/04 06:27:32;;;;;;;4.50;3.10;;;13.80;51.30;;;;;;6168008;23;20462;-73
2023/05/04 06:29:59;;;;;;;5.90;3.27;;;13.60;51.60;;;;;;6168853;23;20390;-72
2023/05/04 06:32:25;;;;;;;5.77;3.40;;;13.60;52.00;;;;;;6172696;23;20144;-74
2023/05/04 06:34:54;;;;;;;8.63;4.00;;;13.60;52.20;;;;;;6167068;23;20382;-75
2023/05/04 06:37:20;;;;;;;4.93;3.30;;;13.70;52.50;;;;;;6143014;23;20147;-76
2023/05/04 06:39:46;;;;;;;6.20;3.70;;;13.60;52.50;;;;;;6169086;23;20426;-74
2023/05/04 06:42:12;;;;;;;7.57;3.40;;;13.70;52.50;;;;;;6170319;23;20374;-75
2023/05/04 06:44:39;;;;;;;5.23;2.47;;;13.80;52.40;;;;;;6172645;23;20137;-76
2023/05/04 06:47:06;;;;;;;6.90;2.90;;;13.90;52.50;;;;;;6150495;23;20819;-76
2023/05/04 06:49:33;;;;;;;4.47;2.70;;;14.10;52.20;;;;;;6176561;23;20183;-77
2023/05/04 06:51:59;;;;;;;3.77;3.10;;;14.30;51.60;;;;;;6172031;23;20362;-76
2023/05/04 06:54:26;;;;;;;9.70;2.83;;;14.50;51.00;;;;;;6170988;23;20369;-74
2023/05/04 06:56:52;;;;;;;11.40;3.63;;;14.50;51.10;;;;;;6143414;23;20386;-75
2023/05/04 06:59:19;;;;;;;2.70;2.10;;;14.70;51.30;;;;;;6170604;23;20438;-77
2023/05/04 07:01:46;;;;;;;4.53;3.17;;;14.80;51.10;;;;;;6145836;23;20147;-74
2023/05/04 07:04:12;;;;;;;4.10;2.93;;;15.00;50.70;;;;;;6169628;23;20379;-72
2023/05/04 07:06:41;;;;;;;3.50;2.70;;;15.00;51.20;;;;;;6169484;23;20363;-74
2023/05/04 07:09:07;;;;;;;7.03;3.30;;;14.90;51.00;;;;;;6166502;23;20394;-75
2023/05/04 07:11:32;;;;;;;4.77;3.40;;;14.80;50.90;;;;;;6168345;23;20374;-75
2023/05/04 07:13:58;;;;;;;6.87;2.77;;;14.80;50.70;;;;;;6144401;23;20375;-77
2023/05/04 07:16:25;;;;;;;4.23;2.67;;;14.70;51.20;;;;;;6145908;23;20147;-74
2023/05/04 07:18:50;;;;;;;6.97;3.00;;;14.60;51.70;;;;;;6170130;23;20258;-77
2023/05/04 07:21:16;;;;;;;4.27;3.20;;;14.70;51.70;;;;;;6172265;23;20392;-76
2023/05/04 07:23:42;;;;;;;4.90;2.50;;;14.60;51.70;;;;;;6173077;23;20149;-77
2023/05/04 07:26:07;;;;;;;4.17;2.37;;;14.70;52.10;;;;;;6118449;23;20154;-74
2023/05/04 07:28:33;;;;;;;3.20;2.90;;;14.70;52.10;;;;;;6168458;23;20138;-74
2023/05/04 07:31:01;;;;;;;4.67;2.53;;;14.90;51.70;;;;;;6171234;23;20171;-74
2023/05/04 07:33:27;;;;;;;5.90;2.90;;;15.00;51.80;;;;;;6172067;23;20142;-74
2023/05/04 07:35:59;;;;;;;4.10;2.90;;;15.10;51.30;;;;;;6148195;23;20351;-75
2023/05/04 07:38:26;;;;;;;3.77;2.33;;;15.10;51.00;;;;;;6169746;23;20147;-77
2023/05/04 07:40:55;;;;;;;4.47;2.57;;;15.20;51.10;;;;;;6149595;23;20446;-79
2023/05/04 07:43:22;;;;;;;4.33;2.83;;;15.30;51.10;;;;;;6153182;23;20371;-79
2023/05/04 07:45:48;;;;;;;6.67;2.73;;;15.30;51.00;;;;;;6171910;23;20376;-77
2023/05/04 07:48:17;;;;;;;6.40;2.90;;;15.50;51.10;;;;;;6146044;23;20393;-75
2023/05/04 07:50:46;;;;;;;6.30;3.73;;;15.60;50.70;;;;;;6165647;23;20401;-76
2023/05/04 07:53:14;;;;;;;4.60;3.00;;;15.60;49.90;;;;;;6168563;23;20438;-77
2023/05/04 07:55:42;;;;;;;8.73;3.50;;;15.70;50.10;;;;;;6172980;23;20377;-75
2023/05/04 07:58:12;;;;;;;5.87;3.70;;;15.70;49.80;;;;;;6168760;23;20367;-75
2023/05/04 08:00:37;;;;;;;4.73;3.20;;;15.80;49.70;;;;;;6170718;23;20744;-75
2023/05/04 08:03:03;;;;;;;7.60;4.73;;;15.70;49.80;;;;;;6170002;23;20413;-76
2023/05/04 08:05:29;;;;;;;5.20;2.80;;;15.80;50.30;;;;;;6147589;23;20207;-73
2023/05/04 08:07:55;;;;;;;4.90;3.43;;;15.90;50.40;;;;;;6171786;23;20378;-76
2023/05/04 08:10:20;;;;;;;4.50;3.27;;;16.00;49.90;;;;;;6173447;23;20171;-76
2023/05/04 08:12:48;;;;;;;8.77;3.90;;;16.00;49.70;;;;;;6147457;23;20194;-75
2023/05/04 08:15:15;;;;;;;6.60;3.93;;;16.20;49.60;;;;;;6172094;23;20142;-75
2023/05/04 08:17:41;;;;;;;4.53;3.60;;;16.20;49.60;;;;;;6145674;23;20371;-74
2023/05/04 08:20:07;;;;;;;5.60;3.50;;;16.30;49.90;;;;;;6174531;23;20466;-76
2023/05/04 08:22:33;;;;;;;5.03;3.20;;;16.40;49.60;;;;;;6172603;23;20386;-77
2023/05/04 08:24:58;;;;;;;3.97;2.90;;;16.50;49.50;;;;;;6174942;23;20375;-77
2023/05/04 08:27:24;;;;;;;3.60;3.00;;;16.60;49.60;;;;;;6169589;23;20367;-76
2023/05/04 08:29:50;;;;;;;3.80;3.33;;;16.70;49.30;;;;;;6172916;23;20215;-74
2023/05/04 08:32:16;;;;;;;3.00;2.20;;;16.80;49.20;;;;;;6146002;23;20147;-73
2023/05/04 08:34:41;;;;;;;4.37;3.90;;;17.00;49.30;;;;;;6176404;23;20191;-75
2023/05/04 08:37:08;;;;;;;4.87;3.80;;;17.00;49.10;;;;;;6175199;23;20378;-77
2023/05/04 08:39:34;;;;;;;4.97;3.57;;;17.20;48.60;;;;;;6173681;23;20179;-75
2023/05/04 08:42:01;;;;;;;4.20;3.27;;;17.40;48.70;;;;;;6172943;23;20387;-75
2023/05/04 08:44:28;;;;;;;7.17;3.97;;;17.50;48.70;;;;;;6170942;23;20144;-73
2023/05/04 08:46:55;;;;;;;7.07;4.00;;;17.60;48.10;;;;;;6167572;23;20484;-76
2023/05/04 08:49:22;;;;;;;6.17;3.90;;;17.70;47.90;;;;;;6165796;23;20414;-75
2023/05/04 08:51:49;;;;;;;8.47;5.93;;;17.70;48.30;;;;;;6167694;23;20370;-77
2023/05/04 08:54:16;;;;;;;4.87;4.10;;;17.60;48.60;;;;;;6144029;23;20382;-78
2023/05/04 08:56:42;;;;;;;7.57;5.33;;;17.60;48.70;;;;;;6147815;23;20776;-77
2023/05/04 08:59:19;;;;;;;8.50;3.87;;;17.60;48.90;;;;;;6171599;23;20423;-77
2023/05/04 09:01:48;;;;;;;13.73;6.83;;;17.70;49.30;;;;;;6169678;23;20370;-77
2023/05/04 09:04:14;;;;;;;7.30;4.80;;;17.80;49.10;;;;;;6170881;23;20359;-76
2023/05/04 09:06:40;;;;;;;7.80;4.80;;;17.90;48.80;;;;;;6173536;23;20654;-76
2023/05/04 09:09:07;;;;;;;6.07;5.30;;;18.00;49.00;;;;;;6146518;23;20402;-75
2023/05/04 09:11:33;;;;;;;5.97;4.40;;;18.20;48.60;;;;;;6167414;23;20382;-76
2023/05/04 09:13:58;;;;;;;5.67;4.23;;;18.20;48.40;;;;;;6171194;23;20368;-76
2023/05/04 09:16:36;;;;;;;9.27;4.20;;;18.30;48.70;;;;;;6174910;23;20191;-76
2023/05/04 09:19:03;;;;;;;7.10;4.50;;;18.30;48.90;;;;;;6170315;23;20434;-76
2023/05/04 09:21:30;;;;;;;5.23;4.00;;;18.30;48.80;;;;;;6165334;23;20398;-74
2023/05/04 09:23:55;;;;;;;6.13;4.70;;;18.40;48.90;;;;;;6170271;23;20450;-77
2023/05/04 09:26:29;;;;;;;5.23;4.73;;;18.60;48.80;;;;;;6143006;23;20395;-76
2023/05/04 09:28:55;;;;;;;5.83;4.67;;;18.50;48.40;;;;;;6147189;23;20235;-78
2023/05/04 09:31:22;;;;;;;8.17;4.77;;;18.60;48.30;;;;;;6145510;23;20757;-76
2023/05/04 09:33:48;;;;;;;5.30;4.20;;;18.60;48.00;;;;;;6172495;23;20355;-78
2023/05/04 09:36:16;;;;;;;7.37;4.50;;;18.60;48.30;;;;;;6172430;23;20431;-76
2023/05/04 09:38:43;;;;;;;6.47;4.93;;;18.60;48.20;;;;;;6145965;23;20371;-76
2023/05/04 09:41:09;;;;;;;9.43;4.73;;;18.70;48.30;;;;;;6171058;23;20451;-74
2023/05/04 09:43:39;;;;;;;5.40;4.57;;;18.70;48.20;;;;;;6170476;23;20481;-77
2023/05/04 09:46:05;;;;;;;4.80;3.60;;;18.80;48.30;;;;;;6170597;23;20364;-77
2023/05/04 09:48:31;;;;;;;5.13;4.17;;;18.80;48.70;;;;;;6144084;23;20389;-76
2023/05/04 09:51:05;;;;;;;4.77;4.20;;;18.90;48.80;;;;;;6142414;23;20399;-77
2023/05/04 09:53:32;;;;;;;5.03;4.10;;;18.90;48.50;;;;;;6145531;23;20156;-76
2023/05/04 09:56:19;;;;;;;6.30;3.80;;;18.90;48.50;;;;;;6171060;23;20368;-79
2023/05/04 09:58:49;;;;;;;5.30;4.17;;;19.00;48.50;;;;;;6170359;23;20374;-77
2023/05/04 10:01:15;;;;;;;4.93;3.90;;;19.10;48.40;;;;;;6175543;23;20375;-79
2023/05/04 10:03:42;;;;;;;6.40;4.17;;;19.20;48.40;;;;;;6151118;23;20379;-77
2023/05/04 10:06:10;;;;;;;4.70;3.63;;;19.40;48.30;;;;;;6150444;23;20465;-78
2023/05/04 10:08:36;;;;;;;3.43;3.13;;;19.50;48.30;;;;;;6175339;23;20442;-79
2023/05/04 10:11:02;;;;;;;6.53;4.47;;;19.60;48.00;;;;;;6149822;23;20366;-78
2023/05/04 10:13:30;;;;;;;5.00;3.90;;;19.70;47.20;;;;;;6176410;23;20364;-76
2023/05/04 10:16:12;;;;;;;10.27;4.93;;;19.80;47.50;;;;;;6176363;23;20355;-78
2023/05/04 10:19:06;;;;;;;7.77;4.50;;;19.80;47.30;;;;;;6149717;23;20384;-77
2023/05/04 10:21:46;;;;;;;7.37;4.70;;;19.80;47.20;;;;;;6180084;23;20385;-77
2023/05/04 10:24:38;;;;;;;4.50;4.10;;;19.90;46.90;;;;;;6174834;23;20373;-77
2023/05/04 10:27:14;;;;;;;6.17;4.17;;;20.00;46.60;;;;;;6175314;23;20620;-77
2023/05/04 10:29:41;;;;;;;9.40;4.33;;;20.10;46.40;;;;;;6150154;23;20406;-76
2023/05/04 10:32:18;;;;;;;7.00;5.10;;;20.10;46.60;;;;;;6149691;23;20381;-74
2023/05/04 10:34:44;;;;;;;5.30;4.10;;;20.30;45.90;;;;;;6177855;23;20401;-79
2023/05/04 10:37:18;;;;;;;7.57;3.53;;;20.20;45.90;;;;;;6151570;23;20398;-78
2023/05/04 10:39:56;;;;;;;4.13;3.50;;;20.30;45.50;;;;;;6152211;23;20444;-79
2023/05/04 10:42:22;;;;;;;3.93;3.53;;;20.40;45.10;;;;;;6152324;23;20366;-76
2023/05/04 10:44:53;;;;;;;4.43;3.60;;;20.50;44.70;;;;;;6152883;23;20416;-80
2023/05/04 10:47:34;;;;;;;4.97;4.10;;;20.60;44.30;;;;;;6151985;23;20189;-78
2023/05/04 10:50:05;;;;;;;4.90;4.30;;;20.60;43.80;;;;;;6179369;23;20403;-79
2023/05/04 10:52:52;;;;;;;3.67;3.37;;;20.60;43.40;;;;;;6151284;23;20382;-78
2023/05/04 10:55:20;;;;;;;4.13;2.77;;;20.60;43.70;;;;;;6175438;23;20369;-77
2023/05/04 10:57:52;;;;;;;3.47;3.17;;;20.60;44.00;;;;;;6149790;23;20403;-77
2023/05/04 11:00:18;;;;;;;6.20;3.77;;;20.70;43.90;;;;;;6150274;23;20450;-78
2023/05/04 11:02:46;;;;;;;3.93;3.23;;;20.80;42.80;;;;;;6176338;23;20428;-78
2023/05/04 11:05:16;;;;;;;6.03;4.10;;;20.90;42.00;;;;;;6176558;23;20378;-77
2023/05/04 11:07:43;;;;;;;4.00;3.00;;;20.90;41.80;;;;;;6174533;23;20366;-77
2023/05/04 11:10:22;;;;;;;6.30;4.00;;;20.90;41.50;;;;;;6175457;23;20897;-77
2023/05/04 11:12:48;;;;;;;3.47;3.17;;;20.90;41.80;;;;;;6153988;23;20370;-76
2023/05/04 11:15:14;;;;;;;6.23;3.33;;;20.90;41.40;;;;;;6151865;23;20377;-78
2023/05/04 11:17:51;;;;;;;3.73;3.43;;;20.90;41.20;;;;;;6176069;23;20151;-76
2023/05/04 11:20:25;;;;;;;4.70;3.93;;;21.00;41.10;;;;;;6178544;23;20515;-75
2023/05/04 11:22:52;;;;;;;3.50;2.90;;;21.10;41.10;;;;;;6175311;23;20378;-76
2023/05/04 11:25:26;;;;;;;3.87;3.30;;;21.10;41.60;;;;;;6176321;23;20389;-79
2023/05/04 11:27:52;;;;;;;3.20;3.00;;;21.20;41.70;;;;;;6175221;23;20363;-77
2023/05/04 11:30:17;;;;;;;7.63;3.37;;;21.20;41.30;;;;;;6175932;23;20402;-78
2023/05/04 11:32:48;;;;;;;3.70;2.80;;;21.30;40.40;;;;;;6174988;23;20214;-76
2023/05/04 11:35:16;;;;;;;8.10;4.30;;;21.20;40.10;;;;;;6175712;23;20182;-77
2023/05/04 11:37:43;;;;;;;6.17;3.60;;;21.30;39.80;;;;;;6153417;23;20389;-77
2023/05/04 11:40:10;;;;;;;5.10;3.27;;;21.40;39.90;;;;;;6177501;23;20474;-77
2023/05/04 11:42:40;;;;;;;4.30;3.40;;;21.50;39.70;;;;;;6172996;23;20370;-78
2023/05/04 11:45:15;;;;;;;3.67;3.03;;;21.60;39.80;;;;;;6173481;23;20764;-77
2023/05/04 11:47:42;;;;;;;5.80;3.77;;;21.60;39.80;;;;;;6171169;23;20819;-78
2023/05/04 11:50:10;;;;;;;4.33;3.13;;;21.60;40.10;;;;;;6149422;23;20476;-78
2023/05/04 11:52:39;;;;;;;4.50;3.13;;;21.60;39.70;;;;;;6171857;23;20390;-75
2023/05/04 11:55:09;;;;;;;6.20;3.50;;;21.70;38.40;;;;;;6175581;23;20752;-78
2023/05/04 11:57:36;;;;;;;4.43;2.90;;;21.60;38.10;;;;;;6148859;23;20370;-76
2023/05/04 12:00:04;;;;;;;7.17;2.70;;;21.60;38.20;;;;;;6147960;23;20462;-78
2023/05/04 12:02:30;;;;;;;4.90;3.00;;;21.60;38.60;;;;;;6178800;23;20354;-79
2023/05/04 12:04:56;;;;;;;3.70;3.40;;;21.70;38.80;;;;;;6151389;23;20376;-78
2023/05/04 12:07:22;;;;;;;5.80;4.20;;;21.90;37.90;;;;;;6177016;23;20405;-76
2023/05/04 12:09:48;;;;;;;5.30;3.30;;;21.80;37.80;;;;;;6173354;23;20171;-77
2023/05/04 12:12:17;;;;;;;3.33;2.90;;;21.90;36.80;;;;;;6150896;23;20148;-77
2023/05/04 12:15:02;;;;;;;3.93;3.10;;;22.00;37.10;;;;;;6172051;23;20383;-76
2023/05/04 12:17:40;;;;;;;6.30;3.60;;;22.00;36.90;;;;;;6150379;23;20437;-77
2023/05/04 12:20:06;;;;;;;5.40;3.47;;;21.90;36.70;;;;;;6174972;23;20442;-75
2023/05/04 12:22:34;;;;;;;4.13;3.30;;;22.00;37.00;;;;;;6148272;23;20394;-78
2023/05/04 12:24:59;;;;;;;3.30;2.90;;;21.80;37.00;;;;;;6176920;23;20438;-77
2023/05/04 12:27:26;;;;;;;3.30;2.90;;;21.80;37.10;;;;;;6173406;23;20367;-78
2023/05/04 12:29:52;;;;;;;5.23;3.30;;;21.90;37.20;;;;;;6171101;23;20219;-78
2023/05/04 12:32:19;;;;;;;6.70;3.30;;;22.00;36.60;;;;;;6171488;23;20447;-76
2023/05/04 12:34:45;;;;;;;3.30;2.50;;;22.00;36.60;;;;;;6145435;23;20386;-77
2023/05/04 12:37:13;;;;;;;3.20;2.90;;;21.90;36.80;;;;;;6171421;23;20386;-75
2023/05/04 12:39:41;;;;;;;3.13;2.67;;;21.90;37.00;;;;;;6144633;23;20188;-77
2023/05/04 12:42:07;;;;;;;4.90;2.97;;;21.90;36.60;;;;;;6147505;23;20615;-76
2023/05/04 12:44:33;;;;;;;3.40;3.10;;;22.00;36.80;;;;;;6172681;23;20405;-77
2023/05/04 12:47:02;;;;;;;4.40;3.33;;;22.00;36.70;;;;;;6175815;23;20155;-79
2023/05/04 12:49:30;;;;;;;5.60;3.10;;;22.00;37.10;;;;;;6146834;23;20219;-77
2023/05/04 12:51:56;;;;;;;7.17;3.17;;;22.00;37.30;;;;;;6148765;23;20393;-78